CheckWX is a tool to help pilots better visualize weather data.  It is not intended as a substitute for an official pre-flight weather briefing.

20:24:45 UTC

KNEL METAR
Lakehurst Maxfield Field Airport
Lakehurst, New Jersey, USA
Current

25 mins ago

KNEL 202000Z AUTO 17016G28KT 10SM CLR 21/13 A2973 RMK AO2 PK WND 16028/1958 SLP064 T02110133 PNO $
Observed
Apr-20 @ 20:00 UTC
Wind
  • 170° at 16 KTS
  • Gusting to 28 KTS
Visibility
10 SM
Flight Rules
VFR
Cloud Levels
  • Clear skies
Temperature
21°C / 70°F
Dewpoint
13°C / 55°F
Humidity
60%
Altimeter
29.73" Hg
Pressure
1006.82 hPa
Previous

1 hour ago

KNEL 201900Z AUTO 17014G22KT 10SM CLR 21/16 A2971 RMK AO2 SLP059 T02110161 PNO $
Observed
Apr-20 @ 19:00 UTC
Wind
  • 170° at 14 KTS
  • Gusting to 22 KTS
Visibility
10 SM
Flight Rules
VFR
Cloud Levels
  • Clear skies
Temperature
21°C / 70°F
Dewpoint
16°C / 61°F
Humidity
73%
Altimeter
29.71" Hg
Pressure
1006.12 hPa
Previous

2 hours ago

KNEL 201800Z AUTO 19011G20KT 10SM CLR 21/17 A2971 RMK AO2 SLP059 6//// T02060172 10206 20178 58001 PNO $
Observed
Apr-20 @ 18:00 UTC
Wind
  • 190° at 11 KTS
  • Gusting to 20 KTS
Visibility
10 SM
Flight Rules
VFR
Cloud Levels
  • Clear skies
Temperature
21°C / 70°F
Dewpoint
17°C / 63°F
Humidity
78%
Altimeter
29.71" Hg
Pressure
1006.12 hPa